Atlantic Beach, NC

11:42 AM EST on February 01, 2015 (GMT -0500)
Sound View | Change Station
CLOSE
Current Station
Personal Weather Station
Location: Newport, NC
Elevation: 13 ft
Nearby Weather Stations

Elev 13 ft 34.73 °N, 76.86 °W | Updated 12 minutes ago

Partly Cloudy
Partly Cloudy
50.4 °F
Feels Like 50.4 °F
N
3.7
Wind Variable Wind from SE

Today
High -- | Low -- °F
--% Chance of Precip.
Yesterday
High -- | Low -- °F
Precip. -- in
7:05 AM 5:36 PM
Waxing Gibbous, 95% visible
Pressure 30.33 in
Visibility 10.0 miles
Clouds Clear
Dew Point 34 °F
Humidity 53%
Rainfall 0.00 in
Snow Depth Not available.
UV 4 out of 12
Pollen 2.20 out of 12
Air Quality Not available.
Flu Activity Not available.
METAR KMRH 011558Z AUTO 26007KT 10SM CLR 09/01 A3033 RMK AO2 SLP271 T00940011 TSNO

More Conditions Fewer Conditions

Pressure 30.33 in
Visibility 10.0 miles
Clouds Clear
Dew Point 34 °F
Humidity 53%
Rainfall 0.00 in
Snow Depth Not available.
UV 4 out of 12
Pollen 2.20 out of 12
Air Quality Not available.
Flu Activity Not available.
METAR KMRH 011558Z AUTO 26007KT 10SM CLR 09/01 A3033 RMK AO2 SLP271 T00940011 TSNO

More Conditions Fewer Conditions

10-Day Weather Forecast

Almanac

Astronomy

Feb. 01, 2015 Rise Set
Actual Time
Civil Twilight
Nautical Twilight
Astronomical Twilight
Moon
Length of Visible Light
Length of Day
Tomorrow will be .
, % of the Moon is Illuminated

Today's Extremes

State Highs State Lows

Community

WunderPhotos

Upload Photos

1,792,367 photos uploaded!

WunderBlogs® & News

Nearby

Air Quality

  Air Quality AQ Index Pollutant
Not available.

Snow Depth

Station Depth Elevation

Earthquake Activity

City Distance Mag. Time & Date
Minimum magnitude displayed is 2.5.

Coastal Water Temperatures

Place Temperature

Nearby Weather Stations